sensor_id;sensor_type;location;lat;lon;timestamp;pressure;altitude;pressure_sealevel;temperature;humidity
66164;BME280;52962;51.088;3.096;2023-06-24T00:00:00;102191.59;;;19.41;100.00
66164;BME280;52962;51.088;3.096;2023-06-24T00:02:34;102195.97;;;19.30;100.00
66164;BME280;52962;51.088;3.096;2023-06-24T00:05:05;102193.31;;;19.30;100.00
66164;BME280;52962;51.088;3.096;2023-06-24T00:07:35;102185.31;;;19.30;100.00
66164;BME280;52962;51.088;3.096;2023-06-24T00:10:11;102177.25;;;19.25;100.00
66164;BME280;52962;51.088;3.096;2023-06-24T00:12:40;102187.03;;;19.22;100.00
66164;BME280;52962;51.088;3.096;2023-06-24T00:15:09;102186.13;;;19.21;100.00
66164;BME280;52962;51.088;3.096;2023-06-24T00:17:37;102180.78;;;19.17;100.00
66164;BME280;52962;51.088;3.096;2023-06-24T00:20:08;102177.16;;;19.09;100.00
66164;BME280;52962;51.088;3.096;2023-06-24T00:22:38;102174.44;;;19.03;100.00
66164;BME280;52962;51.088;3.096;2023-06-24T00:25:11;102172.66;;;19.02;100.00
66164;BME280;52962;51.088;3.096;2023-06-24T00:27:40;102177.97;;;18.99;100.00
66164;BME280;52962;51.088;3.096;2023-06-24T00:30:09;102171.72;;;18.93;100.00
66164;BME280;52962;51.088;3.096;2023-06-24T00:32:38;102171.69;;;18.92;100.00
66164;BME280;52962;51.088;3.096;2023-06-24T00:35:08;102175.25;;;18.89;100.00
66164;BME280;52962;51.088;3.096;2023-06-24T00:37:37;102171.66;;;18.86;100.00
66164;BME280;52962;51.088;3.096;2023-06-24T00:40:06;102171.63;;;18.83;100.00
66164;BME280;52962;51.088;3.096;2023-06-24T00:42:38;102167.16;;;18.80;100.00
66164;BME280;52962;51.088;3.096;2023-06-24T00:45:07;102167.13;;;18.77;100.00
66164;BME280;52962;51.088;3.096;2023-06-24T00:47:38;102176.00;;;18.75;100.00
66164;BME280;52962;51.088;3.096;2023-06-24T00:50:09;102176.91;;;18.69;100.00
66164;BME280;52962;51.088;3.096;2023-06-24T00:52:39;102183.03;;;18.60;100.00
66164;BME280;52962;51.088;3.096;2023-06-24T00:55:11;102191.00;;;18.57;100.00
66164;BME280;52962;51.088;3.096;2023-06-24T00:57:40;102191.84;;;18.55;100.00
66164;BME280;52962;51.088;3.096;2023-06-24T01:00:10;102188.28;;;18.54;100.00
66164;BME280;52962;51.088;3.096;2023-06-24T01:02:41;102179.38;;;18.51;100.00
66164;BME280;52962;51.088;3.096;2023-06-24T01:05:12;102182.88;;;18.47;100.00
66164;BME280;52962;51.088;3.096;2023-06-24T01:07:41;102176.66;;;18.45;100.00
66164;BME280;52962;51.088;3.096;2023-06-24T01:10:12;102177.53;;;18.44;100.00
66164;BME280;52962;51.088;3.096;2023-06-24T01:12:41;102175.75;;;18.43;100.00
66164;BME280;52962;51.088;3.096;2023-06-24T01:15:11;102181.88;;;18.36;100.00
66164;BME280;52962;51.088;3.096;2023-06-24T01:17:44;102178.28;;;18.29;100.00
66164;BME280;52962;51.088;3.096;2023-06-24T01:20:20;102177.31;;;18.22;100.00
66164;BME280;52962;51.088;3.096;2023-06-24T01:23:27;102180.84;;;18.21;100.00
66164;BME280;52962;51.088;3.096;2023-06-24T01:26:29;102174.63;;;18.19;100.00
66164;BME280;52962;51.088;3.096;2023-06-24T01:29:15;102173.69;;;18.14;100.00
66164;BME280;52962;51.088;3.096;2023-06-24T01:31:54;102183.47;;;18.15;100.00
66164;BME280;52962;51.088;3.096;2023-06-24T01:34:32;102184.28;;;18.10;100.00
66164;BME280;52962;51.088;3.096;2023-06-24T01:37:08;102174.47;;;18.06;100.00
66164;BME280;52962;51.088;3.096;2023-06-24T01:39:44;102184.13;;;17.94;100.00
66164;BME280;52962;51.088;3.096;2023-06-24T01:42:14;102178.75;;;17.90;100.00
66164;BME280;52962;51.088;3.096;2023-06-24T01:44:45;102174.25;;;17.86;100.00
66164;BME280;52962;51.088;3.096;2023-06-24T01:47:20;102176.88;;;17.83;100.00
66164;BME280;52962;51.088;3.096;2023-06-24T01:49:52;102171.50;;;17.80;100.00
66164;BME280;52962;51.088;3.096;2023-06-24T01:52:22;102172.38;;;17.79;100.00
66164;BME280;52962;51.088;3.096;2023-06-24T01:54:52;102170.56;;;17.75;100.00
66164;BME280;52962;51.088;3.096;2023-06-24T01:57:22;102167.84;;;17.72;100.00
66164;BME280;52962;51.088;3.096;2023-06-24T01:59:52;102169.59;;;17.70;100.00
66164;BME280;52962;51.088;3.096;2023-06-24T02:02:23;102163.38;;;17.69;100.00
66164;BME280;52962;51.088;3.096;2023-06-24T02:04:54;102168.72;;;17.69;100.00
66164;BME280;52962;51.088;3.096;2023-06-24T02:07:23;102166.00;;;17.64;100.00
66164;BME280;52962;51.088;3.096;2023-06-24T02:09:54;102169.50;;;17.60;100.00
66164;BME280;52962;51.088;3.096;2023-06-24T02:12:24;102180.06;;;17.54;100.00
66164;BME280;52962;51.088;3.096;2023-06-24T02:14:55;102164.00;;;17.47;100.00
66164;BME280;52962;51.088;3.096;2023-06-24T02:17:26;102171.09;;;17.46;100.00
66164;BME280;52962;51.088;3.096;2023-06-24T02:19:57;102168.44;;;17.46;100.00
66164;BME280;52962;51.088;3.096;2023-06-24T02:22:27;102171.97;;;17.47;100.00
66164;BME280;52962;51.088;3.096;2023-06-24T02:24:56;102177.28;;;17.45;100.00
66164;BME280;52962;51.088;3.096;2023-06-24T02:27:25;102170.16;;;17.44;100.00
66164;BME280;52962;51.088;3.096;2023-06-24T02:29:54;102175.53;;;17.46;100.00
66164;BME280;52962;51.088;3.096;2023-06-24T02:32:26;102168.38;;;17.42;100.00
66164;BME280;52962;51.088;3.096;2023-06-24T02:34:56;102169.22;;;17.41;100.00
66164;BME280;52962;51.088;3.096;2023-06-24T02:37:27;102161.22;;;17.38;100.00
66164;BME280;52962;51.088;3.096;2023-06-24T02:39:57;102157.63;;;17.36;100.00
66164;BME280;52962;51.088;3.096;2023-06-24T02:42:25;102163.75;;;17.30;100.00
66164;BME280;52962;51.088;3.096;2023-06-24T02:44:53;102162.84;;;17.28;100.00
66164;BME280;52962;51.088;3.096;2023-06-24T02:47:21;102168.16;;;17.26;100.00
66164;BME280;52962;51.088;3.096;2023-06-24T02:49:52;102166.34;;;17.24;100.00
66164;BME280;52962;51.088;3.096;2023-06-24T02:52:24;102161.84;;;17.20;100.00
66164;BME280;52962;51.088;3.096;2023-06-24T02:54:56;102165.34;;;17.16;100.00
66164;BME280;52962;51.088;3.096;2023-06-24T02:57:46;102163.53;;;17.15;100.00
66164;BME280;52962;51.088;3.096;2023-06-24T03:00:24;102158.19;;;17.12;100.00
66164;BME280;52962;51.088;3.096;2023-06-24T03:03:13;102162.63;;;17.13;100.00
66164;BME280;52962;51.088;3.096;2023-06-24T03:05:51;102159.97;;;17.13;100.00
66164;BME280;52962;51.088;3.096;2023-06-24T03:08:22;102157.25;;;17.08;100.00
66164;BME280;52962;51.088;3.096;2023-06-24T03:10:51;102163.44;;;17.07;100.00
66164;BME280;52962;51.088;3.096;2023-06-24T03:13:24;102162.50;;;17.04;100.00
66164;BME280;52962;51.088;3.096;2023-06-24T03:16:11;102162.44;;;16.99;100.00
66164;BME280;52962;51.088;3.096;2023-06-24T03:18:48;102172.19;;;16.98;100.00
66164;BME280;52962;51.088;3.096;2023-06-24T03:21:18;102173.97;;;16.99;100.00
66164;BME280;52962;51.088;3.096;2023-06-24T03:23:46;102164.16;;;16.97;100.00
66164;BME280;52962;51.088;3.096;2023-06-24T03:26:15;102169.44;;;16.94;100.00
66164;BME280;52962;51.088;3.096;2023-06-24T03:28:43;102161.34;;;16.86;100.00
66164;BME280;52962;51.088;3.096;2023-06-24T03:31:15;102166.63;;;16.83;100.00
66164;BME280;52962;51.088;3.096;2023-06-24T03:33:44;102162.19;;;16.84;100.00
66164;BME280;52962;51.088;3.096;2023-06-24T03:36:15;102161.28;;;16.82;100.00
66164;BME280;52962;51.088;3.096;2023-06-24T03:38:45;102160.28;;;16.75;100.00
66164;BME280;52962;51.088;3.096;2023-06-24T03:41:13;102169.16;;;16.76;100.00
66164;BME280;52962;51.088;3.096;2023-06-24T03:43:41;102167.38;;;16.76;100.00
66164;BME280;52962;51.088;3.096;2023-06-24T03:46:12;102172.63;;;16.72;100.00
66164;BME280;52962;51.088;3.096;2023-06-24T03:48:40;102166.41;;;16.71;100.00
66164;BME280;52962;51.088;3.096;2023-06-24T03:51:08;102159.31;;;16.70;100.00
66164;BME280;52962;51.088;3.096;2023-06-24T03:53:37;102166.41;;;16.71;100.00
66164;BME280;52962;51.088;3.096;2023-06-24T03:56:06;102164.59;;;16.67;100.00
66164;BME280;52962;51.088;3.096;2023-06-24T03:58:34;102166.38;;;16.68;100.00
66164;BME280;52962;51.088;3.096;2023-06-24T04:01:02;102171.75;;;16.71;100.00
66164;BME280;52962;51.088;3.096;2023-06-24T04:03:31;102170.88;;;16.72;100.00
66164;BME280;52962;51.088;3.096;2023-06-24T04:06:00;102172.63;;;16.72;100.00
66164;BME280;52962;51.088;3.096;2023-06-24T04:08:29;102164.69;;;16.73;100.00
66164;BME280;52962;51.088;3.096;2023-06-24T04:10:59;102168.34;;;16.81;100.00
66164;BME280;52962;51.088;3.096;2023-06-24T04:13:31;102168.47;;;16.87;100.00
66164;BME280;52962;51.088;3.096;2023-06-24T04:16:01;102168.56;;;16.93;100.00
66164;BME280;52962;51.088;3.096;2023-06-24T04:18:29;102168.63;;;16.98;100.00
66164;BME280;52962;51.088;3.096;2023-06-24T04:20:58;102173.97;;;16.99;100.00
66164;BME280;52962;51.088;3.096;2023-06-24T04:23:28;102170.41;;;16.99;100.00
66164;BME280;52962;51.088;3.096;2023-06-24T04:25:56;102172.22;;;17.02;100.00
66164;BME280;52962;51.088;3.096;2023-06-24T04:28:24;102171.34;;;17.03;100.00
66164;BME280;52962;51.088;3.096;2023-06-24T04:30:53;102172.19;;;16.98;100.00
66164;BME280;52962;51.088;3.096;2023-06-24T04:33:22;102181.94;;;16.98;100.00
66164;BME280;52962;51.088;3.096;2023-06-24T04:35:50;102186.31;;;16.94;100.00
66164;BME280;52962;51.088;3.096;2023-06-24T04:38:20;102176.59;;;16.98;100.00
66164;BME280;52962;51.088;3.096;2023-06-24T04:40:50;102180.19;;;17.00;100.00
66164;BME280;52962;51.088;3.096;2023-06-24T04:43:18;102174.91;;;17.03;100.00
66164;BME280;52962;51.088;3.096;2023-06-24T04:45:46;102177.59;;;17.05;100.00
66164;BME280;52962;51.088;3.096;2023-06-24T04:48:15;102174.94;;;17.05;100.00
66164;BME280;52962;51.088;3.096;2023-06-24T04:50:43;102174.94;;;17.05;100.00
66164;BME280;52962;51.088;3.096;2023-06-24T04:53:12;102193.56;;;17.05;100.00
66164;BME280;52962;51.088;3.096;2023-06-24T04:55:39;102190.97;;;17.09;100.00
66164;BME280;52962;51.088;3.096;2023-06-24T04:58:08;102186.59;;;17.13;100.00
66164;BME280;52962;51.088;3.096;2023-06-24T05:00:35;102180.41;;;17.14;100.00
66164;BME280;52962;51.088;3.096;2023-06-24T05:03:04;102188.44;;;17.17;100.00
66164;BME280;52962;51.088;3.096;2023-06-24T05:05:34;102190.25;;;17.21;100.00
66164;BME280;52962;51.088;3.096;2023-06-24T05:08:02;102198.31;;;17.25;100.00
66164;BME280;52962;51.088;3.096;2023-06-24T05:10:30;102199.25;;;17.29;100.00
66164;BME280;52962;51.088;3.096;2023-06-24T05:12:59;102198.41;;;17.33;100.00
66164;BME280;52962;51.088;3.096;2023-06-24T05:15:27;102187.78;;;17.33;100.00
66164;BME280;52962;51.088;3.096;2023-06-24T05:17:56;102191.41;;;17.40;100.00
66164;BME280;52962;51.088;3.096;2023-06-24T05:20:24;102187.03;;;17.43;100.00
66164;BME280;52962;51.088;3.096;2023-06-24T05:22:54;102197.75;;;17.48;100.00
66164;BME280;52962;51.088;3.096;2023-06-24T05:25:23;102196.03;;;17.53;100.00
66164;BME280;52962;51.088;3.096;2023-06-24T05:27:51;102197.00;;;17.59;100.00
66164;BME280;52962;51.088;3.096;2023-06-24T05:30:19;102191.72;;;17.62;100.00
66164;BME280;52962;51.088;3.096;2023-06-24T05:32:47;102190.94;;;17.70;100.00
66164;BME280;52962;51.088;3.096;2023-06-24T05:35:15;102200.78;;;17.77;100.00
66164;BME280;52962;51.088;3.096;2023-06-24T05:37:44;102200.88;;;17.83;100.00
66164;BME280;52962;51.088;3.096;2023-06-24T05:40:13;102203.63;;;17.90;100.00
66164;BME280;52962;51.088;3.096;2023-06-24T05:42:41;102200.09;;;17.93;100.00
66164;BME280;52962;51.088;3.096;2023-06-24T05:45:10;102198.41;;;18.00;100.00
66164;BME280;52962;51.088;3.096;2023-06-24T05:47:38;102202.00;;;18.03;100.00
66164;BME280;52962;51.088;3.096;2023-06-24T05:50:06;102204.75;;;18.12;100.00
66164;BME280;52962;51.088;3.096;2023-06-24T05:52:35;102209.28;;;18.19;100.00
66164;BME280;52962;51.088;3.096;2023-06-24T05:55:03;102215.56;;;18.26;100.00
66164;BME280;52962;51.088;3.096;2023-06-24T05:57:33;102205.88;;;18.33;100.00
66164;BME280;52962;51.088;3.096;2023-06-24T06:00:01;102203.28;;;18.42;100.00
66164;BME280;52962;51.088;3.096;2023-06-24T06:02:38;102206.03;;;18.51;100.00
66164;BME280;52962;51.088;3.096;2023-06-24T06:05:07;102209.69;;;18.59;100.00
66164;BME280;52962;51.088;3.096;2023-06-24T06:07:36;102207.13;;;18.67;100.00
66164;BME280;52962;51.088;3.096;2023-06-24T06:10:07;102211.56;;;18.72;100.00
66164;BME280;52962;51.088;3.096;2023-06-24T06:12:37;102208.13;;;18.85;100.00
66164;BME280;52962;51.088;3.096;2023-06-24T06:15:06;102210.00;;;18.95;100.00
66164;BME280;52962;51.088;3.096;2023-06-24T06:17:34;102212.72;;;19.05;100.00
66164;BME280;52962;51.088;3.096;2023-06-24T06:20:03;102209.28;;;19.19;100.00
66164;BME280;52962;51.088;3.096;2023-06-24T06:22:32;102209.34;;;19.32;100.00
66164;BME280;52962;51.088;3.096;2023-06-24T06:25:05;102217.47;;;19.48;100.00
66164;BME280;52962;51.088;3.096;2023-06-24T06:27:34;102219.38;;;19.68;100.00
66164;BME280;52962;51.088;3.096;2023-06-24T06:30:07;102207.00;;;19.97;100.00
66164;BME280;52962;51.088;3.096;2023-06-24T06:32:35;102216.88;;;20.29;100.00
66164;BME280;52962;51.088;3.096;2023-06-24T06:35:04;102217.84;;;20.55;100.00
66164;BME280;52962;51.088;3.096;2023-06-24T06:37:32;102223.22;;;20.70;100.00
66164;BME280;52962;51.088;3.096;2023-06-24T06:40:00;102217.88;;;20.76;100.00
66164;BME280;52962;51.088;3.096;2023-06-24T06:42:29;102219.63;;;20.99;100.00
66164;BME280;52962;51.088;3.096;2023-06-24T06:44:58;102211.56;;;21.26;100.00
66164;BME280;52962;51.088;3.096;2023-06-24T06:47:27;102208.84;;;21.44;100.00
66164;BME280;52962;51.088;3.096;2023-06-24T06:49:56;102212.38;;;21.60;100.00
66164;BME280;52962;51.088;3.096;2023-06-24T06:52:24;102215.03;;;21.68;100.00
66164;BME280;52962;51.088;3.096;2023-06-24T06:54:52;102215.00;;;21.74;100.00
66164;BME280;52962;51.088;3.096;2023-06-24T06:57:21;102225.63;;;21.94;100.00
66164;BME280;52962;51.088;3.096;2023-06-24T06:59:49;102219.44;;;21.81;100.00
66164;BME280;52962;51.088;3.096;2023-06-24T07:02:17;102222.88;;;22.12;100.00
66164;BME280;52962;51.088;3.096;2023-06-24T07:04:47;102209.34;;;22.30;100.00
66164;BME280;52962;51.088;3.096;2023-06-24T07:07:17;102208.28;;;22.54;100.00
66164;BME280;52962;51.088;3.096;2023-06-24T07:09:45;102204.63;;;22.66;100.00
66164;BME280;52962;51.088;3.096;2023-06-24T07:12:14;102205.56;;;22.60;100.00
66164;BME280;52962;51.088;3.096;2023-06-24T07:14:43;102203.66;;;22.74;100.00
66164;BME280;52962;51.088;3.096;2023-06-24T07:17:11;102200.03;;;22.83;100.00
66164;BME280;52962;51.088;3.096;2023-06-24T07:19:39;102208.75;;;23.06;100.00
66164;BME280;52962;51.088;3.096;2023-06-24T07:22:09;102205.66;;;23.44;100.00
66164;BME280;52962;51.088;3.096;2023-06-24T07:24:37;102210.03;;;23.53;100.00
66164;BME280;52962;51.088;3.096;2023-06-24T07:27:06;102216.59;;;23.26;100.00
66164;BME280;52962;51.088;3.096;2023-06-24T07:29:34;102216.41;;;23.46;100.00
66164;BME280;52962;51.088;3.096;2023-06-24T07:32:02;102212.66;;;23.62;100.00
66164;BME280;52962;51.088;3.096;2023-06-24T07:34:31;102212.69;;;23.61;100.00
66164;BME280;52962;51.088;3.096;2023-06-24T07:36:59;102216.31;;;23.55;100.00
66164;BME280;52962;51.088;3.096;2023-06-24T07:39:46;102210.88;;;23.60;100.00
66164;BME280;52962;51.088;3.096;2023-06-24T07:42:14;102211.66;;;23.71;100.00
66164;BME280;52962;51.088;3.096;2023-06-24T07:44:46;102212.38;;;23.84;100.00
66164;BME280;52962;51.088;3.096;2023-06-24T07:47:16;102207.84;;;23.87;100.00
66164;BME280;52962;51.088;3.096;2023-06-24T07:49:44;102203.84;;;23.45;100.00
66164;BME280;52962;51.088;3.096;2023-06-24T07:52:12;102212.78;;;23.48;100.00
66164;BME280;52962;51.088;3.096;2023-06-24T07:54:41;102205.13;;;23.90;100.00
66164;BME280;52962;51.088;3.096;2023-06-24T07:57:10;102219.34;;;24.61;100.00
66164;BME280;52962;51.088;3.096;2023-06-24T07:59:39;102214.47;;;24.85;100.00
66164;BME280;52962;51.088;3.096;2023-06-24T08:02:07;102219.00;;;24.83;100.00
66164;BME280;52962;51.088;3.096;2023-06-24T08:04:35;102214.25;;;24.97;100.00
66164;BME280;52962;51.088;3.096;2023-06-24T08:07:05;102209.06;;;24.85;100.00
66164;BME280;52962;51.088;3.096;2023-06-24T08:09:33;102216.09;;;24.95;100.00
66164;BME280;52962;51.088;3.096;2023-06-24T08:12:01;102214.19;;;25.00;100.00
66164;BME280;52962;51.088;3.096;2023-06-24T08:14:31;102215.91;;;25.04;100.00
66164;BME280;52962;51.088;3.096;2023-06-24T08:16:59;102212.69;;;24.84;100.00
66164;BME280;52962;51.088;3.096;2023-06-24T08:19:27;102206.81;;;24.59;100.00
66164;BME280;52962;51.088;3.096;2023-06-24T08:21:56;102197.47;;;24.81;100.00
66164;BME280;52962;51.088;3.096;2023-06-24T08:24:24;102198.59;;;24.66;100.00
66164;BME280;52962;51.088;3.096;2023-06-24T08:26:52;102196.63;;;24.77;100.00
66164;BME280;52962;51.088;3.096;2023-06-24T08:29:21;102200.56;;;24.57;100.00
66164;BME280;52962;51.088;3.096;2023-06-24T08:31:50;102199.59;;;25.12;100.00
66164;BME280;52962;51.088;3.096;2023-06-24T08:34:19;102202.91;;;25.27;100.00
66164;BME280;52962;51.088;3.096;2023-06-24T08:36:47;102197.22;;;24.95;100.00
66164;BME280;52962;51.088;3.096;2023-06-24T08:39:15;102203.41;;;25.00;100.00
66164;BME280;52962;51.088;3.096;2023-06-24T08:41:43;102201.34;;;25.14;100.00
66164;BME280;52962;51.088;3.096;2023-06-24T08:44:11;102195.69;;;25.74;100.00
66164;BME280;52962;51.088;3.096;2023-06-24T08:46:40;102196.25;;;25.90;100.00
66164;BME280;52962;51.088;3.096;2023-06-24T08:49:16;102193.22;;;25.62;100.00
66164;BME280;52962;51.088;3.096;2023-06-24T08:51:55;102193.19;;;25.65;100.00
66164;BME280;52962;51.088;3.096;2023-06-24T08:54:26;102191.88;;;25.84;100.00
66164;BME280;52962;51.088;3.096;2023-06-24T08:56:54;102197.94;;;25.95;100.00
66164;BME280;52962;51.088;3.096;2023-06-24T08:59:23;102190.84;;;25.91;100.00
66164;BME280;52962;51.088;3.096;2023-06-24T09:01:51;102193.13;;;25.68;100.00
66164;BME280;52962;51.088;3.096;2023-06-24T09:04:21;102195.84;;;26.06;100.00
66164;BME280;52962;51.088;3.096;2023-06-24T09:06:49;102195.28;;;26.31;100.00
66164;BME280;52962;51.088;3.096;2023-06-24T09:09:18;102195.66;;;26.16;100.00
66164;BME280;52962;51.088;3.096;2023-06-24T09:11:54;102189.69;;;26.40;100.00
66164;BME280;52962;51.088;3.096;2023-06-24T09:14:24;102194.91;;;26.48;100.00
66164;BME280;52962;51.088;3.096;2023-06-24T09:16:53;102196.22;;;26.68;100.00
66164;BME280;52962;51.088;3.096;2023-06-24T09:19:23;102200.19;;;26.14;100.00
66164;BME280;52962;51.088;3.096;2023-06-24T09:21:51;102192.00;;;26.57;100.00
66164;BME280;52962;51.088;3.096;2023-06-24T09:24:19;102200.78;;;26.65;100.00
66164;BME280;52962;51.088;3.096;2023-06-24T09:26:48;102202.69;;;26.61;100.00
66164;BME280;52962;51.088;3.096;2023-06-24T09:29:16;102198.50;;;26.48;100.00
66164;BME280;52962;51.088;3.096;2023-06-24T09:31:48;102195.66;;;26.54;100.00
66164;BME280;52962;51.088;3.096;2023-06-24T09:34:16;102199.75;;;26.70;100.00
66164;BME280;52962;51.088;3.096;2023-06-24T09:36:51;102195.81;;;26.84;100.00
66164;BME280;52962;51.088;3.096;2023-06-24T09:39:19;102193.59;;;27.32;100.00
66164;BME280;52962;51.088;3.096;2023-06-24T09:41:56;102185.59;;;27.61;100.00
66164;BME280;52962;51.088;3.096;2023-06-24T09:44:26;102180.00;;;27.67;100.00
66164;BME280;52962;51.088;3.096;2023-06-24T09:46:55;102181.06;;;27.62;100.00
66164;BME280;52962;51.088;3.096;2023-06-24T09:49:23;102181.19;;;27.56;100.00
66164;BME280;52962;51.088;3.096;2023-06-24T09:51:56;102185.19;;;27.75;100.00
66164;BME280;52962;51.088;3.096;2023-06-24T09:54:26;102176.44;;;27.65;100.00
66164;BME280;52962;51.088;3.096;2023-06-24T09:57:02;102174.56;;;27.67;100.00
66164;BME280;52962;51.088;3.096;2023-06-24T09:59:31;102179.78;;;27.43;100.00
66164;BME280;52962;51.088;3.096;2023-06-24T10:02:02;102176.91;;;27.49;100.00
66164;BME280;52962;51.088;3.096;2023-06-24T10:04:31;102180.44;;;27.51;100.00
66164;BME280;52962;51.088;3.096;2023-06-24T10:07:02;102176.47;;;27.64;100.00
66164;BME280;52962;51.088;3.096;2023-06-24T10:09:31;102169.31;;;27.63;100.00
66164;BME280;52962;51.088;3.096;2023-06-24T10:11:59;102172.09;;;27.60;100.00
66164;BME280;52962;51.088;3.096;2023-06-24T10:14:27;102172.81;;;27.66;100.00
66164;BME280;52962;51.088;3.096;2023-06-24T10:17:01;102171.56;;;27.46;100.00
66164;BME280;52962;51.088;3.096;2023-06-24T10:19:30;102172.25;;;27.54;100.00
66164;BME280;52962;51.088;3.096;2023-06-24T10:22:09;102169.66;;;27.49;100.00
66164;BME280;52962;51.088;3.096;2023-06-24T10:24:39;102160.19;;;27.65;100.00
66164;BME280;52962;51.088;3.096;2023-06-24T10:27:13;102162.31;;;27.54;100.00
66164;BME280;52962;51.088;3.096;2023-06-24T10:29:45;102156.81;;;27.57;100.00
66164;BME280;52962;51.088;3.096;2023-06-24T10:32:14;102153.75;;;27.39;100.00
66164;BME280;52962;51.088;3.096;2023-06-24T10:34:43;102154.06;;;27.59;100.00
66164;BME280;52962;51.088;3.096;2023-06-24T10:37:18;102155.03;;;27.56;100.00
66164;BME280;52962;51.088;3.096;2023-06-24T10:39:48;102153.25;;;27.24;100.00
66164;BME280;52962;51.088;3.096;2023-06-24T10:42:32;102156.13;;;26.86;100.00
66164;BME280;52962;51.088;3.096;2023-06-24T10:45:12;102150.47;;;26.95;100.00
66164;BME280;52962;51.088;3.096;2023-06-24T10:47:42;102144.81;;;27.04;100.00
66164;BME280;52962;51.088;3.096;2023-06-24T10:50:12;102147.72;;;26.98;100.00
66164;BME280;52962;51.088;3.096;2023-06-24T10:52:43;102144.94;;;27.01;100.00
66164;BME280;52962;51.088;3.096;2023-06-24T10:55:14;102146.88;;;26.94;100.00
66164;BME280;52962;51.088;3.096;2023-06-24T10:57:43;102143.06;;;27.03;100.00
66164;BME280;52962;51.088;3.096;2023-06-24T11:00:14;102136.94;;;27.27;100.00
66164;BME280;52962;51.088;3.096;2023-06-24T11:02:43;102134.69;;;27.43;100.00
66164;BME280;52962;51.088;3.096;2023-06-24T11:05:12;102131.34;;;26.68;100.00
66164;BME280;52962;51.088;3.096;2023-06-24T11:07:42;102127.41;;;26.82;100.00
66164;BME280;52962;51.088;3.096;2023-06-24T11:10:11;102129.00;;;26.89;100.00
66164;BME280;52962;51.088;3.096;2023-06-24T11:12:41;102126.47;;;27.15;100.00
66164;BME280;52962;51.088;3.096;2023-06-24T11:15:11;102124.53;;;27.20;100.00
66164;BME280;52962;51.088;3.096;2023-06-24T11:17:40;102126.13;;;27.27;100.00
66164;BME280;52962;51.088;3.096;2023-06-24T11:20:10;102122.34;;;27.33;100.00
66164;BME280;52962;51.088;3.096;2023-06-24T11:22:39;102121.56;;;27.29;100.00
66164;BME280;52962;51.088;3.096;2023-06-24T11:25:15;102119.25;;;27.47;100.00
66164;BME280;52962;51.088;3.096;2023-06-24T11:27:44;102119.34;;;27.44;100.00
66164;BME280;52962;51.088;3.096;2023-06-24T11:30:13;102106.78;;;27.10;100.00
66164;BME280;52962;51.088;3.096;2023-06-24T11:32:43;102105.22;;;27.03;100.00
66164;BME280;52962;51.088;3.096;2023-06-24T11:35:13;102106.47;;;27.21;100.00
66164;BME280;52962;51.088;3.096;2023-06-24T11:37:43;102100.75;;;27.31;100.00
66164;BME280;52962;51.088;3.096;2023-06-24T11:40:13;102100.66;;;27.34;100.00
66164;BME280;52962;51.088;3.096;2023-06-24T11:42:45;102101.47;;;27.38;100.00
66164;BME280;52962;51.088;3.096;2023-06-24T11:45:20;102101.31;;;27.43;100.00
66164;BME280;52962;51.088;3.096;2023-06-24T11:47:48;102097.31;;;27.56;100.00
66164;BME280;52962;51.088;3.096;2023-06-24T11:50:17;102095.00;;;27.73;100.00
66164;BME280;52962;51.088;3.096;2023-06-24T11:52:46;102095.50;;;27.56;100.00
66164;BME280;52962;51.088;3.096;2023-06-24T11:55:17;102094.31;;;27.66;100.00
66164;BME280;52962;51.088;3.096;2023-06-24T11:57:55;102095.28;;;27.64;100.00
66164;BME280;52962;51.088;3.096;2023-06-24T12:00:25;102091.38;;;27.74;100.00
66164;BME280;52962;51.088;3.096;2023-06-24T12:02:54;102085.75;;;27.80;100.00
66164;BME280;52962;51.088;3.096;2023-06-24T12:05:23;102088.16;;;27.61;100.00
66164;BME280;52962;51.088;3.096;2023-06-24T12:08:00;102088.00;;;27.66;100.00
66164;BME280;52962;51.088;3.096;2023-06-24T12:10:30;102086.16;;;27.68;100.00
66164;BME280;52962;51.088;3.096;2023-06-24T12:13:02;102078.91;;;27.68;100.00
66164;BME280;52962;51.088;3.096;2023-06-24T12:15:30;102077.66;;;27.80;100.00
66164;BME280;52962;51.088;3.096;2023-06-24T12:17:58;102084.03;;;27.78;100.00
66164;BME280;52962;51.088;3.096;2023-06-24T12:20:27;102075.66;;;27.56;100.00
66164;BME280;52962;51.088;3.096;2023-06-24T12:23:00;102070.69;;;27.42;100.00
66164;BME280;52962;51.088;3.096;2023-06-24T12:25:28;102073.06;;;27.53;100.00
66164;BME280;52962;51.088;3.096;2023-06-24T12:27:56;102066.22;;;27.71;100.00
66164;BME280;52962;51.088;3.096;2023-06-24T12:30:27;102079.75;;;27.10;100.00
66164;BME280;52962;51.088;3.096;2023-06-24T12:32:56;102071.78;;;27.35;100.00
66164;BME280;52962;51.088;3.096;2023-06-24T12:35:24;102058.59;;;27.54;100.00
66164;BME280;52962;51.088;3.096;2023-06-24T12:37:53;102063.31;;;27.47;100.00
66164;BME280;52962;51.088;3.096;2023-06-24T12:40:21;102062.97;;;27.58;100.00
66164;BME280;52962;51.088;3.096;2023-06-24T12:42:49;102063.91;;;27.57;100.00
66164;BME280;52962;51.088;3.096;2023-06-24T12:45:18;102054.59;;;27.67;100.00
66164;BME280;52962;51.088;3.096;2023-06-24T12:47:48;102053.22;;;27.82;100.00
66164;BME280;52962;51.088;3.096;2023-06-24T12:50:17;102050.28;;;27.89;100.00
66164;BME280;52962;51.088;3.096;2023-06-24T12:52:45;102044.84;;;27.89;100.00
66164;BME280;52962;51.088;3.096;2023-06-24T12:55:13;102045.94;;;27.84;100.00